Mescalero Apache Indian Rese, New Mexico
Current Conditions -  °F | °C
As of 1:58 AM on Friday 24 Oct 2014 (Local Time) from KHMN Reporting Station
Clear Clear  
Wind Chill: 54°   Ceiling: Unl
Heat Index: 54°   Visibility: 10mi
Dew Point: 47°   Wind: 5mph
Humidity: 78%   Direction: 60°ENE
Pressure: 30.19"   Gusts: NA
Location:  33.1783°N, 105.612°W
Report Text: KHMN 240758Z AUTO 06004KT 10SM CLR 12/08 A3019 RMK AO2 SLP169 T01200083 $
Loading
Personal Weather Stations






























Interactive Weather Map
Tropical Storm Tracking
New forecast layout! Learn more

10-Day Weather Forecast

Advertisements
Track Severe Weather on mobile